No particular awareness of the weather is required.    There are no Weather-warnings
 Banner
iom-flag.gif  iom-flag.gif


Ballaugh webcam more information Ballaugh webcam


Thunder radar more information blitzortung!


Rain radar more information rain snow radar


Visit our other weather sites:

Template documentation
and downloads

And another site



Nearby METAR Reports

   
EGNS - Isle Of Man/Rona, United Kingdom
Distance from station: SSW 16 mi
Updated: 28-03-2020 18:50
Few Clouds  
Few Clouds  
   Wind: NE 23 mph
Wind: NE 23 mph
Temperature: 6°C
Wind Chill: 1°C
Dew Point: -2°C
Humidity: 57%
Barometer: 1040 hPa
Clouds: Few Clouds
Visibility: More than 6 mi
Cloud details: Few Clouds 3000 ft
EGNS 281850Z 05020KT 9999 FEW030 06/M02 Q1040
EGAC - Belfast Harbour, United Kingdom
Distance from station: WNW 57 mi
Updated: 28-03-2020 19:50
Clear  
Clear  
   Wind: NE 13.8 mph
Wind: NE 13.8 mph
Temperature: 6°C
Wind Chill: 2°C
Dew Point: -2°C
Humidity: 57%
Barometer: 1042 hPa
Clouds: Clear
Visibility: More than 6 mi
Cloud details: Clear ft
EGAC 281950Z AUTO 05012KT 9999 NCD 06/M02 Q1042
EGAA - Belfast/Aldergro, United Kingdom
Distance from station: WNW 71 mi
Updated: 28-03-2020 19:50
Clear  
Clear  
   Wind: NE 11.5 mph
Wind: NE 11.5 mph
Temperature: 5°C
Wind Chill: 1°C
Dew Point: -1°C
Humidity: 66%
Barometer: 1042 hPa
Visibility: More than 6 mi
Cloud details: Clear ft
EGAA 281950Z 05010KT CAVOK 05/M01 Q1042
EGNH - Blackpool Airpor, United Kingdom
Distance from station: ESE 73 mi
Updated: 28-03-2020 19:50
Few Clouds  
Few Clouds  
   Wind: NE 15 mph
Wind: NE 15 mph
Temperature: 5°C
Wind Chill: 1°C
Dew Point: -2°C
Humidity: 61%
Barometer: 1040 hPa
Clouds: Few Clouds
Visibility: More than 6 mi
Cloud details: Few Clouds 2100 ft
EGNH 281950Z 05013KT 9999 FEW021 05/M02 Q1040
EGOV - Valley Raf, United Kingdom
Distance from station: S 73 mi
Updated: 28-03-2020 18:50
Mostly Cloudy  
Mostly Cloudy  
   Wind: NE 19.6 mph
Wind: NE 19.6 mph
Temperature: 7°C
Wind Chill: 3°C
Dew Point: 1°C
Humidity: 66%
Barometer: 1038 hPa
Clouds: Mostly Cloudy
Visibility: More than 6 mi
Cloud details: Mostly Cloudy 6000 ft
EGOV 281850Z AUTO 04017KT 9999 BKN060/// 07/01 Q1038
EGPK - Prestwick(Civ/Na, United Kingdom
Distance from station: N 82 mi
Updated: 28-03-2020 19:50
Partly Cloudy  
Partly Cloudy  
   Wind: NE 6.9 mph
Wind: NE 6.9 mph
Temperature: 5°C
Wind Chill: 2°C
Dew Point: -2°C
Humidity: 61%
Barometer: 1044 hPa
Clouds: Partly Cloudy
Visibility: More than 6 mi
Cloud details: Partly Cloudy 3300 ft
EGPK 281950Z 04006KT 9999 SCT033 05/M02 Q1044
EIDW - Dublin Airport, Ireland
Distance from station: SW 93 mi
Updated: 28-03-2020 19:30
Mostly Cloudy  
Mostly Cloudy  
   Wind: ENE 17.3 mph
Wind: ENE 17.3 mph
Temperature: 6°C
Wind Chill: 2°C
Dew Point: 1°C
Humidity: 71%
Barometer: 1039 hPa
Clouds: Mostly Cloudy
Visibility: More than 6 mi
Cloud details: Few Clouds 2200 ft,
Mostly Cloudy 6000 ft
EIDW 281930Z 06015KT 9999 FEW022 BKN060 06/01 Q1039 NOSIG
EGGP - Liverpool Airpor, United Kingdom
Distance from station: SE 98 mi
Updated: 28-03-2020 19:50
Clear  
Clear  
   Wind: NNE 13.8 mph
Wind: NNE 13.8 mph
Temperature: 6°C
Wind Chill: 2°C
Dew Point: 0°C
Humidity: 66%
Barometer: 1039 hPa
Visibility: More than 6 mi
Cloud details: Clear ft
EGGP 281950Z 03012KT CAVOK 06/00 Q1039
EGPF - Glasgow Airport, United Kingdom
Distance from station: N 107 mi
Updated: 28-03-2020 19:50
Clear  
Clear  
   Wind: NE 12.7 mph
Wind: NE 12.7 mph
Temperature: 4°C
Wind Chill: 0°C
Dew Point: -3°C
Humidity: 61%
Barometer: 1044 hPa
Clouds: Clear
Visibility: More than 6 mi
Cloud details: Clear ft
EGPF 281950Z AUTO 04011KT 9999 NCD 04/M03 Q1044
EGCC - Manchester Intl, United Kingdom
Distance from station: SE 114 mi
Updated: 28-03-2020 19:50
Clear  
Clear  
   Wind: NNE 19.6 mph
Wind: NNE 19.6 mph
Temperature: 5°C
Wind Chill: 0°C
Dew Point: -2°C
Humidity: 61%
Barometer: 1038 hPa
Clouds: Clear
Visibility: More than 6 mi
Cloud details: Clear ft
EGCC 281950Z AUTO 02017KT 9999 NCD 05/M02 Q1038
EGNM - Leeds And Bradfo, United Kingdom
Distance from station: ESE 122 mi
Updated: 28-03-2020 15:50
NOT Current
Few Clouds  
Few Clouds  
   Wind: NNE 16.1 mph
Wind: NNE 16.1 mph
Temperature: 6°C
Wind Chill: 2°C
Dew Point: 0°C
Humidity: 66%
Barometer: 1035 hPa
Clouds: Few Clouds
Visibility: More than 6 mi
Cloud details: Few Clouds 3000 ft
EGNM 281550Z 03014KT 9999 FEW030 06/00 Q1035
 

Script developed by  Saratoga-weather.org Adapted for the template by  Weerstation Leuven

You find our weather info also at:

UK Metoffice

WeatherCloud

WeatherlinkIP

Equipment we use:

Weather-station
Davis VP2

Weather-program
Weather Display

Weather-server
My Computer

Provider
Fasthosts

Davis VP2

Weather Display

My Computer

Fasthosts

 Banner1
iom-flag.gif  iom-flag.gif
Flag Counter 

Hits since site created in 2003